Time;durP1;ratioP1;P1;durP2;ratioP2;P2;SDS_P1;SDS_P2;PMS_P1;PMS_P2;Temp;Humidity;BMP_temperature;BMP_pressure;BME280_temperature;BME280_humidity;BME280_pressure;Samples;Min_cycle;Max_cycle;Signal;HPM_P1;HPM_P2
2023/10/06 00:02:08;;;;;;;;;;;;;;;;;;5072291;28;947;-70
2023/10/06 00:04:38;;;;;;;;;;;;;;;;;;5071547;28;837;-69
2023/10/06 00:07:07;;;;;;;;;;;;;;;;;;5061873;28;1968;-70
2023/10/06 00:09:32;;;;;;;;;;;;;;;;;;5049277;28;1141;-70
2023/10/06 00:11:59;;;;;;;;;;;;;;;;;;5049475;28;1164;-69
2023/10/06 00:14:39;;;;;;;;;;;;;;;;;;5049745;28;1196;-70
2023/10/06 00:17:11;;;;;;;;;;;;;;;;;;5051971;28;936;-70
2023/10/06 00:19:38;;;;;;;;;;;;;;;;;;5050965;28;899;-70
2023/10/06 00:22:13;;;;;;;;;;;;;;;;;;5050539;28;928;-69
2023/10/06 00:24:41;;;;;;;;;;;;;;;;;;5050805;28;833;-69
2023/10/06 00:27:11;;;;;;;;;;;;;;;;;;5051325;28;1973;-69
2023/10/06 00:29:37;;;;;;;;;;;;;;;;;;5050792;28;1049;-70
2023/10/06 00:32:21;;;;;;;;;;;;;;;;;;5054123;28;994;-70
2023/10/06 00:34:47;;;;;;;;;;;;;;;;;;5054639;28;912;-69
2023/10/06 00:37:13;;;;;;;;;;;;;;;;;;5055904;28;790;-69
2023/10/06 00:39:39;;;;;;;;;;;;;;;;;;5054999;28;817;-69
2023/10/06 00:42:06;;;;;;;;;;;;;;;;;;5055124;28;872;-69
2023/10/06 00:44:31;;;;;;;;;;;;;;;;;;5054917;28;833;-69
2023/10/06 00:47:05;;;;;;;;;;;;;;;;;;5054830;28;1910;-69
2023/10/06 00:49:32;;;;;;;;;;;;;;;;;;5054567;28;896;-70
2023/10/06 00:51:59;;;;;;;;;;;;;;;;;;5055118;28;987;-70
2023/10/06 00:54:25;;;;;;;;;;;;;;;;;;5053298;28;1227;-70
2023/10/06 00:56:51;;;;;;;;;;;;;;;;;;5053250;28;900;-70
2023/10/06 00:59:17;;;;;;;;;;;;;;;;;;5036812;28;1949;-70
2023/10/06 01:01:42;;;;;;;;;;;;;;;;;;5054150;28;909;-69
2023/10/06 01:04:08;;;;;;;;;;;;;;;;;;5054380;28;971;-70
2023/10/06 01:06:33;;;;;;;;;;;;;;;;;;5053518;28;1964;-70
2023/10/06 01:09:14;;;;;;;;;;;;;;;;;;5054589;28;960;-69
2023/10/06 01:12:03;;;;;;;;;;;;;;;;;;5053499;28;889;-69
2023/10/06 01:14:29;;;;;;;;;;;;;;;;;;5053829;28;884;-70
2023/10/06 01:19:47;;;;;;;;;;;;;;;;;;5053792;28;765;-69
2023/10/06 01:22:41;;;;;;;;;;;;;;;;;;5054671;28;896;-70
2023/10/06 01:25:12;;;;;;;;;;;;;;;;;;5054057;28;916;-69
2023/10/06 01:27:38;;;;;;;;;;;;;;;;;;5053498;28;1981;-70
2023/10/06 01:32:44;;;;;;;;;;;;;;;;;;5053656;28;875;-70
2023/10/06 01:35:13;;;;;;;;;;;;;;;;;;5054302;28;955;-70
2023/10/06 01:37:45;;;;;;;;;;;;;;;;;;5053584;28;947;-70
2023/10/06 01:42:55;;;;;;;;;;;;;;;;;;5052961;28;958;-70
2023/10/06 01:45:23;;;;;;;;;;;;;;;;;;5053392;28;1046;-70
2023/10/06 01:50:41;;;;;;;;;;;;;;;;;;5044132;28;1425;-70
2023/10/06 01:53:07;;;;;;;;;;;;;;;;;;5053553;28;856;-70
2023/10/06 01:55:38;;;;;;;;;;;;;;;;;;5053467;28;940;-70
2023/10/06 01:58:11;;;;;;;;;;;;;;;;;;5054128;28;926;-70
2023/10/06 02:00:36;;;;;;;;;;;;;;;;;;5052320;28;873;-70
2023/10/06 02:03:03;;;;;;;;;;;;;;;;;;5052690;28;850;-70
2023/10/06 02:05:29;;;;;;;;;;;;;;;;;;5053531;28;1058;-70
2023/10/06 02:08:00;;;;;;;;;;;;;;;;;;5053791;28;1918;-70
2023/10/06 02:10:26;;;;;;;;;;;;;;;;;;5054303;28;868;-70
2023/10/06 02:12:51;;;;;;;;;;;;;;;;;;5053464;28;1200;-70
2023/10/06 02:15:16;;;;;;;;;;;;;;;;;;5054931;28;836;-70
2023/10/06 02:17:42;;;;;;;;;;;;;;;;;;5054056;28;856;-70
2023/10/06 02:22:45;;;;;;;;;;;;;;;;;;5053862;28;726;-70
2023/10/06 02:25:13;;;;;;;;;;;;;;;;;;5054081;28;972;-71
2023/10/06 02:27:44;;;;;;;;;;;;;;;;;;5053374;28;1890;-70
2023/10/06 02:30:13;;;;;;;;;;;;;;;;;;5053572;28;924;-70
2023/10/06 02:32:38;;;;;;;;;;;;;;;;;;5052733;28;841;-70
2023/10/06 02:35:03;;;;;;;;;;;;;;;;;;5051335;28;840;-70
2023/10/06 02:37:29;;;;;;;;;;;;;;;;;;5052398;28;1046;-70
2023/10/06 02:39:55;;;;;;;;;;;;;;;;;;5051389;28;842;-70
2023/10/06 02:42:21;;;;;;;;;;;;;;;;;;5052949;28;828;-69
2023/10/06 02:44:46;;;;;;;;;;;;;;;;;;5052196;28;821;-70
2023/10/06 02:47:13;;;;;;;;;;;;;;;;;;5052790;28;1961;-70
2023/10/06 02:49:40;;;;;;;;;;;;;;;;;;5052156;28;864;-70
2023/10/06 02:57:28;;;;;;;;;;;;;;;;;;5052448;28;864;-70
2023/10/06 02:59:57;;;;;;;;;;;;;;;;;;5052180;28;869;-70
2023/10/06 03:02:25;;;;;;;;;;;;;;;;;;5034841;28;1196;-70
2023/10/06 03:04:55;;;;;;;;;;;;;;;;;;5051536;28;853;-70
2023/10/06 03:07:22;;;;;;;;;;;;;;;;;;5051036;28;1976;-70
2023/10/06 03:09:47;;;;;;;;;;;;;;;;;;5051793;28;638;-70
2023/10/06 03:14:47;;;;;;;;;;;;;;;;;;5051455;28;753;-70
2023/10/06 03:17:13;;;;;;;;;;;;;;;;;;5052416;28;888;-70
2023/10/06 03:19:43;;;;;;;;;;;;;;;;;;5051652;28;891;-70
2023/10/06 03:22:09;;;;;;;;;;;;;;;;;;5051135;28;840;-70
2023/10/06 03:24:40;;;;;;;;;;;;;;;;;;5050433;28;1391;-70
2023/10/06 03:27:13;;;;;;;;;;;;;;;;;;5051862;28;1955;-69
2023/10/06 03:32:27;;;;;;;;;;;;;;;;;;5052376;28;821;-70
2023/10/06 03:34:54;;;;;;;;;;;;;;;;;;5051322;28;904;-70
2023/10/06 03:37:34;;;;;;;;;;;;;;;;;;5052176;28;825;-70
2023/10/06 03:40:10;;;;;;;;;;;;;;;;;;5051813;28;888;-70
2023/10/06 03:42:37;;;;;;;;;;;;;;;;;;5051801;28;905;-70
2023/10/06 03:45:05;;;;;;;;;;;;;;;;;;5052459;28;902;-70
2023/10/06 03:47:30;;;;;;;;;;;;;;;;;;5051704;28;1898;-70
2023/10/06 03:49:55;;;;;;;;;;;;;;;;;;5050742;28;817;-70
2023/10/06 03:52:21;;;;;;;;;;;;;;;;;;5052253;28;904;-70
2023/10/06 03:54:48;;;;;;;;;;;;;;;;;;5051081;28;1023;-70
2023/10/06 03:57:15;;;;;;;;;;;;;;;;;;5050932;28;834;-70
2023/10/06 03:59:44;;;;;;;;;;;;;;;;;;5050235;28;923;-70
2023/10/06 04:02:09;;;;;;;;;;;;;;;;;;5052279;28;933;-70
2023/10/06 04:04:39;;;;;;;;;;;;;;;;;;5052049;28;801;-70
2023/10/06 04:07:06;;;;;;;;;;;;;;;;;;5050003;28;1906;-69
2023/10/06 04:09:31;;;;;;;;;;;;;;;;;;5052385;28;833;-68
2023/10/06 04:12:01;;;;;;;;;;;;;;;;;;5052260;28;790;-69
2023/10/06 04:14:28;;;;;;;;;;;;;;;;;;5052189;28;844;-69
2023/10/06 04:16:53;;;;;;;;;;;;;;;;;;5051758;28;822;-69
2023/10/06 04:19:18;;;;;;;;;;;;;;;;;;5051635;28;829;-70
2023/10/06 04:21:44;;;;;;;;;;;;;;;;;;5051051;28;826;-70
2023/10/06 04:24:10;;;;;;;;;;;;;;;;;;5051131;28;849;-70
2023/10/06 04:26:35;;;;;;;;;;;;;;;;;;5050768;28;1890;-69
2023/10/06 04:29:01;;;;;;;;;;;;;;;;;;5055349;28;1195;-69
2023/10/06 04:31:26;;;;;;;;;;;;;;;;;;5054846;28;1204;-69
2023/10/06 04:33:53;;;;;;;;;;;;;;;;;;5068990;28;1211;-70
2023/10/06 04:36:23;;;;;;;;;;;;;;;;;;5070030;28;805;-70
2023/10/06 04:38:48;;;;;;;;;;;;;;;;;;5070904;28;883;-70
2023/10/06 04:41:14;;;;;;;;;;;;;;;;;;5069953;28;848;-70
2023/10/06 04:43:44;;;;;;;;;;;;;;;;;;5070730;28;919;-70
2023/10/06 04:46:09;;;;;;;;;;;;;;;;;;5070837;28;848;-70
2023/10/06 04:48:38;;;;;;;;;;;;;;;;;;5070653;28;1952;-69
2023/10/06 04:51:06;;;;;;;;;;;;;;;;;;5070741;28;896;-70
2023/10/06 04:53:38;;;;;;;;;;;;;;;;;;5070657;28;825;-70
2023/10/06 04:56:07;;;;;;;;;;;;;;;;;;5070391;28;873;-70
2023/10/06 04:58:32;;;;;;;;;;;;;;;;;;5068959;28;1632;-69
2023/10/06 05:01:00;;;;;;;;;;;;;;;;;;5069363;28;809;-69
2023/10/06 05:03:40;;;;;;;;;;;;;;;;;;5071351;28;820;-69
2023/10/06 05:06:24;;;;;;;;;;;;;;;;;;5070348;28;914;-69
2023/10/06 05:08:49;;;;;;;;;;;;;;;;;;5069101;28;1309;-70
2023/10/06 05:11:15;;;;;;;;;;;;;;;;;;5070993;28;824;-70
2023/10/06 05:13:40;;;;;;;;;;;;;;;;;;5069518;28;1533;-70
2023/10/06 05:16:05;;;;;;;;;;;;;;;;;;5070694;28;942;-69
2023/10/06 05:18:33;;;;;;;;;;;;;;;;;;5073809;28;868;-70
2023/10/06 05:20:58;;;;;;;;;;;;;;;;;;5073895;28;943;-69
2023/10/06 05:23:23;;;;;;;;;;;;;;;;;;5073970;28;793;-69
2023/10/06 05:25:48;;;;;;;;;;;;;;;;;;5073925;28;813;-69
2023/10/06 05:28:17;;;;;;;;;;;;;;;;;;5072575;28;1894;-69
2023/10/06 05:30:43;;;;;;;;;;;;;;;;;;5073876;28;978;-69
2023/10/06 05:33:09;;;;;;;;;;;;;;;;;;5074000;28;812;-69
2023/10/06 05:35:41;;;;;;;;;;;;;;;;;;5073673;28;887;-68
2023/10/06 05:38:15;;;;;;;;;;;;;;;;;;5073807;28;840;-69
2023/10/06 05:40:41;;;;;;;;;;;;;;;;;;5073980;28;894;-69
2023/10/06 05:43:11;;;;;;;;;;;;;;;;;;5074036;28;884;-69
2023/10/06 05:45:39;;;;;;;;;;;;;;;;;;5072708;28;1449;-69
2023/10/06 05:48:07;;;;;;;;;;;;;;;;;;5074127;28;1928;-69
2023/10/06 05:50:35;;;;;;;;;;;;;;;;;;5056246;28;1315;-69
2023/10/06 05:53:17;;;;;;;;;;;;;;;;;;5075091;28;825;-68
2023/10/06 05:55:42;;;;;;;;;;;;;;;;;;5073878;28;892;-69
2023/10/06 05:58:14;;;;;;;;;;;;;;;;;;5072834;28;1593;-68
2023/10/06 06:00:57;;;;;;;;;;;;;;;;;;5072989;28;840;-68
2023/10/06 06:03:25;;;;;;;;;;;;;;;;;;5074321;28;1170;-67
2023/10/06 06:05:57;;;;;;;;;;;;;;;;;;5073811;28;993;-68
2023/10/06 06:08:22;;;;;;;;;;;;;;;;;;5074510;28;1910;-69
2023/10/06 06:10:48;;;;;;;;;;;;;;;;;;5073493;28;994;-69
2023/10/06 06:13:13;;;;;;;;;;;;;;;;;;5073273;28;820;-69
2023/10/06 06:15:39;;;;;;;;;;;;;;;;;;5072543;28;923;-69
2023/10/06 06:18:04;;;;;;;;;;;;;;;;;;5072962;28;821;-69
2023/10/06 06:20:30;;;;;;;;;;;;;;;;;;5072167;28;959;-69
2023/10/06 06:22:59;;;;;;;;;;;;;;;;;;5073092;28;959;-69
2023/10/06 06:25:26;;;;;;;;;;;;;;;;;;5073031;28;943;-69
2023/10/06 06:27:54;;;;;;;;;;;;;;;;;;5072615;28;1906;-69
2023/10/06 06:30:19;;;;;;;;;;;;;;;;;;5071083;28;848;-69
2023/10/06 06:32:50;;;;;;;;;;;;;;;;;;5072153;28;836;-69
2023/10/06 06:35:19;;;;;;;;;;;;;;;;;;5072542;28;892;-69
2023/10/06 06:37:45;;;;;;;;;;;;;;;;;;5072445;28;924;-69
2023/10/06 06:40:12;;;;;;;;;;;;;;;;;;5071500;28;997;-69
2023/10/06 06:42:38;;;;;;;;;;;;;;;;;;5072445;28;781;-69
2023/10/06 06:45:06;;;;;;;;;;;;;;;;;;5071020;28;1058;-69
2023/10/06 06:47:31;;;;;;;;;;;;;;;;;;5070987;28;1902;-69
2023/10/06 06:49:59;;;;;;;;;;;;;;;;;;5072051;28;876;-69
2023/10/06 06:52:24;;;;;;;;;;;;;;;;;;5072632;28;924;-69
2023/10/06 06:54:50;;;;;;;;;;;;;;;;;;5071732;28;1096;-69
2023/10/06 06:57:19;;;;;;;;;;;;;;;;;;5070805;28;940;-69
2023/10/06 06:59:45;;;;;;;;;;;;;;;;;;5072176;28;789;-69
2023/10/06 07:02:10;;;;;;;;;;;;;;;;;;5072470;28;1162;-69
2023/10/06 07:04:36;;;;;;;;;;;;;;;;;;5072015;28;817;-69
2023/10/06 07:07:01;;;;;;;;;;;;;;;;;;5070623;28;1902;-69
2023/10/06 07:09:27;;;;;;;;;;;;;;;;;;5073137;28;923;-69
2023/10/06 07:11:54;;;;;;;;;;;;;;;;;;5072074;28;845;-69
2023/10/06 07:14:20;;;;;;;;;;;;;;;;;;5072475;28;859;-68
2023/10/06 07:16:47;;;;;;;;;;;;;;;;;;5072157;28;856;-69
2023/10/06 07:19:14;;;;;;;;;;;;;;;;;;5072481;28;947;-68
2023/10/06 07:21:39;;;;;;;;;;;;;;;;;;5072306;28;852;-69
2023/10/06 07:24:05;;;;;;;;;;;;;;;;;;5072883;28;809;-69
2023/10/06 07:26:31;;;;;;;;;;;;;;;;;;5072350;28;1959;-69
2023/10/06 07:28:58;;;;;;;;;;;;;;;;;;5071993;28;864;-69
2023/10/06 07:31:26;;;;;;;;;;;;;;;;;;5072519;28;856;-69
2023/10/06 07:33:52;;;;;;;;;;;;;;;;;;5071213;28;820;-69
2023/10/06 07:36:17;;;;;;;;;;;;;;;;;;5071594;28;824;-70
2023/10/06 07:38:43;;;;;;;;;;;;;;;;;;5071670;28;889;-69
2023/10/06 07:41:09;;;;;;;;;;;;;;;;;;5071702;28;970;-69
2023/10/06 07:43:35;;;;;;;;;;;;;;;;;;5072930;28;900;-70
2023/10/06 07:46:07;;;;;;;;;;;;;;;;;;5072780;28;931;-70
2023/10/06 07:48:39;;;;;;;;;;;;;;;;;;5072285;28;1967;-70
2023/10/06 07:51:08;;;;;;;;;;;;;;;;;;5071703;28;1325;-69
2023/10/06 07:53:35;;;;;;;;;;;;;;;;;;5072180;28;840;-69
2023/10/06 07:56:06;;;;;;;;;;;;;;;;;;5071036;28;879;-69
2023/10/06 07:58:32;;;;;;;;;;;;;;;;;;5054163;28;718;-69
2023/10/06 08:00:57;;;;;;;;;;;;;;;;;;5071138;28;884;-69
2023/10/06 08:03:22;;;;;;;;;;;;;;;;;;5070241;28;1173;-70
2023/10/06 08:05:48;;;;;;;;;;;;;;;;;;5069820;28;1050;-69
2023/10/06 08:08:13;;;;;;;;;;;;;;;;;;5069718;28;1989;-69
2023/10/06 08:10:39;;;;;;;;;;;;;;;;;;5070163;28;1243;-70
2023/10/06 08:13:04;;;;;;;;;;;;;;;;;;5070510;28;852;-70
2023/10/06 08:15:32;;;;;;;;;;;;;;;;;;5071495;28;900;-70
2023/10/06 08:17:57;;;;;;;;;;;;;;;;;;5071179;28;1136;-70
2023/10/06 08:20:24;;;;;;;;;;;;;;;;;;5071590;28;806;-69
2023/10/06 08:22:50;;;;;;;;;;;;;;;;;;5069709;28;1183;-69
2023/10/06 08:25:16;;;;;;;;;;;;;;;;;;5071235;28;915;-69
2023/10/06 08:27:42;;;;;;;;;;;;;;;;;;5070808;28;1894;-70
2023/10/06 08:30:17;;;;;;;;;;;;;;;;;;5070171;28;1191;-69
2023/10/06 08:32:51;;;;;;;;;;;;;;;;;;5053145;28;1309;-69
2023/10/06 08:35:17;;;;;;;;;;;;;;;;;;5054831;28;1354;-69
2023/10/06 08:37:43;;;;;;;;;;;;;;;;;;5056956;28;1230;-69
2023/10/06 08:40:09;;;;;;;;;;;;;;;;;;5050478;28;1368;-69
2023/10/06 08:42:35;;;;;;;;;;;;;;;;;;5052258;28;817;-70
2023/10/06 08:45:01;;;;;;;;;;;;;;;;;;5052343;28;841;-71
2023/10/06 08:47:26;;;;;;;;;;;;;;;;;;5050057;28;1910;-69
2023/10/06 08:49:53;;;;;;;;;;;;;;;;;;5049797;28;975;-69
2023/10/06 08:52:22;;;;;;;;;;;;;;;;;;5052531;28;793;-70
2023/10/06 08:54:47;;;;;;;;;;;;;;;;;;5054755;28;941;-69
2023/10/06 08:57:13;;;;;;;;;;;;;;;;;;5055331;28;813;-70
2023/10/06 08:59:39;;;;;;;;;;;;;;;;;;5053961;28;1702;-69
2023/10/06 09:02:05;;;;;;;;;;;;;;;;;;5055009;28;1284;-70
2023/10/06 09:04:34;;;;;;;;;;;;;;;;;;5053699;28;1215;-70
2023/10/06 09:07:07;;;;;;;;;;;;;;;;;;5052850;28;1914;-69
2023/10/06 09:09:32;;;;;;;;;;;;;;;;;;5037057;28;1394;-70
2023/10/06 09:11:58;;;;;;;;;;;;;;;;;;5054842;28;812;-69
2023/10/06 09:14:23;;;;;;;;;;;;;;;;;;5055090;28;817;-70
2023/10/06 09:16:49;;;;;;;;;;;;;;;;;;5054446;28;995;-70
2023/10/06 09:19:15;;;;;;;;;;;;;;;;;;5055007;28;948;-69
2023/10/06 09:21:59;;;;;;;;;;;;;;;;;;5054363;28;852;-70
2023/10/06 09:24:25;;;;;;;;;;;;;;;;;;5055381;28;938;-72
2023/10/06 09:26:50;;;;;;;;;;;;;;;;;;5054174;28;1902;-71
2023/10/06 09:29:28;;;;;;;;;;;;;;;;;;5053998;28;864;-71
2023/10/06 09:31:57;;;;;;;;;;;;;;;;;;5054805;28;911;-71
2023/10/06 09:34:23;;;;;;;;;;;;;;;;;;5053746;28;856;-72
2023/10/06 09:36:50;;;;;;;;;;;;;;;;;;5054145;28;908;-72
2023/10/06 09:39:25;;;;;;;;;;;;;;;;;;5054856;28;813;-72
2023/10/06 09:41:51;;;;;;;;;;;;;;;;;;5054642;28;849;-72
2023/10/06 09:44:18;;;;;;;;;;;;;;;;;;5052950;28;1517;-71
2023/10/06 09:46:45;;;;;;;;;;;;;;;;;;5053662;28;1898;-72
2023/10/06 09:49:18;;;;;;;;;;;;;;;;;;5053509;28;1010;-71
2023/10/06 09:51:43;;;;;;;;;;;;;;;;;;5053343;28;861;-71
2023/10/06 09:54:09;;;;;;;;;;;;;;;;;;5053794;28;924;-71
2023/10/06 09:56:36;;;;;;;;;;;;;;;;;;5053661;28;908;-71
2023/10/06 09:59:02;;;;;;;;;;;;;;;;;;5053038;28;872;-71
2023/10/06 10:01:31;;;;;;;;;;;;;;;;;;5052115;28;951;-71
2023/10/06 10:03:57;;;;;;;;;;;;;;;;;;5051155;28;1322;-72
2023/10/06 10:06:23;;;;;;;;;;;;;;;;;;5053800;28;992;-71
2023/10/06 10:08:51;;;;;;;;;;;;;;;;;;5053239;28;1910;-71
2023/10/06 10:11:28;;;;;;;;;;;;;;;;;;5053617;28;857;-71
2023/10/06 10:13:54;;;;;;;;;;;;;;;;;;5053514;28;849;-71
2023/10/06 10:16:19;;;;;;;;;;;;;;;;;;5052158;28;1314;-72
2023/10/06 10:18:49;;;;;;;;;;;;;;;;;;5051359;28;1358;-71
2023/10/06 10:21:15;;;;;;;;;;;;;;;;;;5053773;28;809;-71
2023/10/06 10:23:43;;;;;;;;;;;;;;;;;;5053170;28;833;-72
2023/10/06 10:26:18;;;;;;;;;;;;;;;;;;5053493;28;825;-71
2023/10/06 10:28:43;;;;;;;;;;;;;;;;;;5052693;28;1898;-71
2023/10/06 10:31:17;;;;;;;;;;;;;;;;;;5053452;28;990;-71
2023/10/06 10:33:43;;;;;;;;;;;;;;;;;;5053098;28;924;-71
2023/10/06 10:36:14;;;;;;;;;;;;;;;;;;5053574;28;956;-72
2023/10/06 10:38:43;;;;;;;;;;;;;;;;;;5051731;28;1187;-71
2023/10/06 10:41:09;;;;;;;;;;;;;;;;;;5052320;28;1082;-72
2023/10/06 10:43:38;;;;;;;;;;;;;;;;;;5053333;28;811;-71
2023/10/06 10:46:08;;;;;;;;;;;;;;;;;;5052935;28;845;-72
2023/10/06 10:49:07;;;;;;;;;;;;;;;;;;5053241;28;1902;-72
2023/10/06 10:51:26;;;;;;;;;;;;;;;;;;5051832;28;986;-72
2023/10/06 10:53:52;;;;;;;;;;;;;;;;;;5052987;28;908;-72
2023/10/06 10:56:21;;;;;;;;;;;;;;;;;;5052978;28;958;-71
2023/10/06 10:58:50;;;;;;;;;;;;;;;;;;5052224;28;856;-72
2023/10/06 11:01:29;;;;;;;;;;;;;;;;;;5052716;28;882;-71
2023/10/06 11:04:12;;;;;;;;;;;;;;;;;;5052739;28;821;-72
2023/10/06 11:06:38;;;;;;;;;;;;;;;;;;5052243;28;1887;-72
2023/10/06 11:09:12;;;;;;;;;;;;;;;;;;5052029;28;911;-72
2023/10/06 11:11:40;;;;;;;;;;;;;;;;;;5052576;28;821;-71
2023/10/06 11:14:05;;;;;;;;;;;;;;;;;;5034463;28;1537;-71
2023/10/06 11:16:32;;;;;;;;;;;;;;;;;;5050483;28;1159;-71
2023/10/06 11:18:58;;;;;;;;;;;;;;;;;;5050524;28;1299;-71
2023/10/06 11:21:23;;;;;;;;;;;;;;;;;;5051060;28;1545;-71
2023/10/06 11:23:49;;;;;;;;;;;;;;;;;;5050207;28;837;-73
2023/10/06 11:26:25;;;;;;;;;;;;;;;;;;5034563;28;1218;-72
2023/10/06 11:28:51;;;;;;;;;;;;;;;;;;5052098;28;1975;-72
2023/10/06 11:31:16;;;;;;;;;;;;;;;;;;5052800;28;892;-71
2023/10/06 11:33:41;;;;;;;;;;;;;;;;;;5052070;28;1023;-72
2023/10/06 11:36:07;;;;;;;;;;;;;;;;;;5051410;28;825;-72
2023/10/06 11:38:32;;;;;;;;;;;;;;;;;;5050701;28;1145;-72
2023/10/06 11:40:58;;;;;;;;;;;;;;;;;;5051247;28;930;-72
2023/10/06 11:43:23;;;;;;;;;;;;;;;;;;5051060;28;837;-72
2023/10/06 11:45:59;;;;;;;;;;;;;;;;;;5048719;28;849;-72
2023/10/06 11:48:34;;;;;;;;;;;;;;;;;;5050581;28;1969;-72
2023/10/06 11:51:00;;;;;;;;;;;;;;;;;;5051318;28;873;-72
2023/10/06 11:53:26;;;;;;;;;;;;;;;;;;5052051;28;829;-72
2023/10/06 11:55:53;;;;;;;;;;;;;;;;;;5051080;28;916;-72
2023/10/06 11:58:31;;;;;;;;;;;;;;;;;;5051949;28;640;-71
2023/10/06 12:00:56;;;;;;;;;;;;;;;;;;5051301;28;939;-70
2023/10/06 12:03:31;;;;;;;;;;;;;;;;;;5051976;28;1093;-72
2023/10/06 12:05:57;;;;;;;;;;;;;;;;;;5051489;28;905;-71
2023/10/06 12:08:22;;;;;;;;;;;;;;;;;;5052115;28;1917;-71
2023/10/06 12:10:50;;;;;;;;;;;;;;;;;;5050672;28;1059;-71
2023/10/06 12:13:15;;;;;;;;;;;;;;;;;;5051951;28;884;-71
2023/10/06 12:15:40;;;;;;;;;;;;;;;;;;5049976;28;1186;-72
2023/10/06 12:18:10;;;;;;;;;;;;;;;;;;5051990;28;814;-71
2023/10/06 12:20:35;;;;;;;;;;;;;;;;;;5051636;28;818;-71
2023/10/06 12:23:00;;;;;;;;;;;;;;;;;;5050321;28;1089;-72
2023/10/06 12:25:26;;;;;;;;;;;;;;;;;;5051863;28;829;-71
2023/10/06 12:27:52;;;;;;;;;;;;;;;;;;5052326;28;1902;-71
2023/10/06 12:30:17;;;;;;;;;;;;;;;;;;5056029;28;1010;-72
2023/10/06 12:32:45;;;;;;;;;;;;;;;;;;5055053;28;1064;-72
2023/10/06 12:35:11;;;;;;;;;;;;;;;;;;5056045;28;877;-72
2023/10/06 12:37:40;;;;;;;;;;;;;;;;;;5055806;28;852;-71
2023/10/06 12:40:08;;;;;;;;;;;;;;;;;;5055060;28;856;-72
2023/10/06 12:42:34;;;;;;;;;;;;;;;;;;5055116;28;994;-72
2023/10/06 12:45:00;;;;;;;;;;;;;;;;;;5055421;28;899;-73
2023/10/06 12:47:26;;;;;;;;;;;;;;;;;;5055004;28;1973;-71
2023/10/06 12:49:52;;;;;;;;;;;;;;;;;;5054258;28;872;-71
2023/10/06 12:52:17;;;;;;;;;;;;;;;;;;5055184;28;837;-71
2023/10/06 12:54:44;;;;;;;;;;;;;;;;;;5054872;28;908;-70
2023/10/06 12:57:09;;;;;;;;;;;;;;;;;;5053553;28;912;-71
2023/10/06 12:59:34;;;;;;;;;;;;;;;;;;5054196;28;936;-71
2023/10/06 13:02:03;;;;;;;;;;;;;;;;;;5054489;28;967;-71
2023/10/06 13:04:29;;;;;;;;;;;;;;;;;;5054996;28;1019;-72
2023/10/06 13:06:54;;;;;;;;;;;;;;;;;;5054112;28;1975;-71
2023/10/06 13:09:22;;;;;;;;;;;;;;;;;;5054980;28;908;-72
2023/10/06 13:11:48;;;;;;;;;;;;;;;;;;5054034;28;939;-71
2023/10/06 13:14:18;;;;;;;;;;;;;;;;;;5036846;28;912;-71
2023/10/06 13:16:43;;;;;;;;;;;;;;;;;;5054698;28;837;-72
2023/10/06 13:19:09;;;;;;;;;;;;;;;;;;5053837;28;951;-71
2023/10/06 13:21:34;;;;;;;;;;;;;;;;;;5053099;28;790;-71
2023/10/06 13:23:59;;;;;;;;;;;;;;;;;;5052751;28;1190;-71
2023/10/06 13:26:24;;;;;;;;;;;;;;;;;;5053968;28;1210;-71
2023/10/06 13:28:53;;;;;;;;;;;;;;;;;;5054433;28;1957;-71
2023/10/06 13:31:20;;;;;;;;;;;;;;;;;;5055041;28;893;-72
2023/10/06 13:33:45;;;;;;;;;;;;;;;;;;5053269;28;1303;-72
2023/10/06 13:36:11;;;;;;;;;;;;;;;;;;5055438;28;940;-72
2023/10/06 13:38:37;;;;;;;;;;;;;;;;;;5055242;28;857;-70
2023/10/06 13:41:04;;;;;;;;;;;;;;;;;;5054190;28;872;-72
2023/10/06 13:43:29;;;;;;;;;;;;;;;;;;5054497;28;865;-73
2023/10/06 13:45:57;;;;;;;;;;;;;;;;;;5053689;28;817;-72
2023/10/06 13:48:26;;;;;;;;;;;;;;;;;;5054356;28;1910;-72
2023/10/06 13:50:52;;;;;;;;;;;;;;;;;;5068855;28;1239;-72
2023/10/06 13:53:18;;;;;;;;;;;;;;;;;;5053067;28;1346;-72
2023/10/06 13:55:44;;;;;;;;;;;;;;;;;;5052896;28;829;-71
2023/10/06 13:58:10;;;;;;;;;;;;;;;;;;5054125;28;904;-71
2023/10/06 14:00:38;;;;;;;;;;;;;;;;;;5054075;28;857;-71
2023/10/06 14:03:06;;;;;;;;;;;;;;;;;;5053632;28;838;-71
2023/10/06 14:05:32;;;;;;;;;;;;;;;;;;5054087;28;911;-71
2023/10/06 14:07:59;;;;;;;;;;;;;;;;;;5053340;28;1909;-71
2023/10/06 14:10:25;;;;;;;;;;;;;;;;;;5053308;28;1295;-71
2023/10/06 14:13:00;;;;;;;;;;;;;;;;;;5053087;28;872;-71
2023/10/06 14:15:30;;;;;;;;;;;;;;;;;;5053711;28;853;-72
2023/10/06 14:17:55;;;;;;;;;;;;;;;;;;5051621;28;922;-72
2023/10/06 14:20:25;;;;;;;;;;;;;;;;;;5053992;28;828;-72
2023/10/06 14:22:55;;;;;;;;;;;;;;;;;;5053064;28;928;-73
2023/10/06 14:25:22;;;;;;;;;;;;;;;;;;5053298;28;880;-72
2023/10/06 14:27:49;;;;;;;;;;;;;;;;;;5051685;28;1910;-72
2023/10/06 14:30:15;;;;;;;;;;;;;;;;;;5053044;28;943;-73
2023/10/06 14:32:44;;;;;;;;;;;;;;;;;;5053497;28;879;-72
2023/10/06 14:35:23;;;;;;;;;;;;;;;;;;5052738;28;1092;-72
2023/10/06 14:46:07;;;;;;;;;;;;;;;;;;5051985;28;643;-71
2023/10/06 14:48:32;;;;;;;;;;;;;;;;;;5050299;28;1906;-71
2023/10/06 14:50:59;;;;;;;;;;;;;;;;;;5050898;28;898;-71
2023/10/06 14:53:25;;;;;;;;;;;;;;;;;;5051647;28;844;-72
2023/10/06 14:55:51;;;;;;;;;;;;;;;;;;5051522;28;845;-71
2023/10/06 14:58:16;;;;;;;;;;;;;;;;;;5052327;28;912;-71
2023/10/06 15:00:41;;;;;;;;;;;;;;;;;;5052183;28;900;-71
2023/10/06 15:03:08;;;;;;;;;;;;;;;;;;5051639;28;952;-71
2023/10/06 15:05:36;;;;;;;;;;;;;;;;;;5049532;28;954;-71
2023/10/06 15:08:02;;;;;;;;;;;;;;;;;;5051232;28;1910;-71
2023/10/06 15:10:28;;;;;;;;;;;;;;;;;;5052530;28;951;-71
2023/10/06 15:12:57;;;;;;;;;;;;;;;;;;5050467;28;900;-70
2023/10/06 15:15:24;;;;;;;;;;;;;;;;;;5052034;28;801;-69
2023/10/06 15:17:50;;;;;;;;;;;;;;;;;;5053857;28;849;-71
2023/10/06 15:20:19;;;;;;;;;;;;;;;;;;5051737;28;1589;-70
2023/10/06 15:22:44;;;;;;;;;;;;;;;;;;5052153;28;900;-70
2023/10/06 15:25:10;;;;;;;;;;;;;;;;;;5052335;28;868;-70
2023/10/06 15:27:36;;;;;;;;;;;;;;;;;;5052988;28;1909;-70
2023/10/06 15:30:04;;;;;;;;;;;;;;;;;;5052507;28;900;-70
2023/10/06 15:32:30;;;;;;;;;;;;;;;;;;5052953;28;1021;-70
2023/10/06 15:34:55;;;;;;;;;;;;;;;;;;5052284;28;888;-70
2023/10/06 15:37:21;;;;;;;;;;;;;;;;;;5053176;28;998;-70
2023/10/06 15:39:46;;;;;;;;;;;;;;;;;;5053073;28;837;-71
2023/10/06 15:42:13;;;;;;;;;;;;;;;;;;5050422;28;1171;-71
2023/10/06 15:44:38;;;;;;;;;;;;;;;;;;5051398;28;887;-70
2023/10/06 15:47:03;;;;;;;;;;;;;;;;;;5050198;28;1906;-70
2023/10/06 15:49:28;;;;;;;;;;;;;;;;;;5051676;28;991;-70
2023/10/06 15:51:54;;;;;;;;;;;;;;;;;;5051291;28;872;-70
2023/10/06 15:54:19;;;;;;;;;;;;;;;;;;5051757;28;809;-71
2023/10/06 15:56:46;;;;;;;;;;;;;;;;;;5050528;28;940;-70
2023/10/06 15:59:15;;;;;;;;;;;;;;;;;;5049748;28;1195;-70
2023/10/06 16:01:42;;;;;;;;;;;;;;;;;;5049250;28;919;-70
2023/10/06 16:04:07;;;;;;;;;;;;;;;;;;5049670;28;1210;-71
2023/10/06 16:06:36;;;;;;;;;;;;;;;;;;5051487;28;946;-70
2023/10/06 16:09:07;;;;;;;;;;;;;;;;;;5051249;28;1898;-71
2023/10/06 16:11:34;;;;;;;;;;;;;;;;;;5051570;28;914;-70
2023/10/06 16:14:04;;;;;;;;;;;;;;;;;;5050833;28;829;-71
2023/10/06 16:16:30;;;;;;;;;;;;;;;;;;5051466;28;853;-71
2023/10/06 16:18:55;;;;;;;;;;;;;;;;;;5049642;28;827;-70
2023/10/06 16:21:20;;;;;;;;;;;;;;;;;;5048413;28;794;-70
2023/10/06 16:23:51;;;;;;;;;;;;;;;;;;5049655;28;1066;-70
2023/10/06 16:26:18;;;;;;;;;;;;;;;;;;5047507;28;1219;-71
2023/10/06 16:28:43;;;;;;;;;;;;;;;;;;5049929;28;1924;-70
2023/10/06 16:31:10;;;;;;;;;;;;;;;;;;5048755;28;794;-70
2023/10/06 16:33:36;;;;;;;;;;;;;;;;;;5049823;28;826;-71
2023/10/06 16:36:04;;;;;;;;;;;;;;;;;;5049118;28;1194;-71
2023/10/06 16:38:29;;;;;;;;;;;;;;;;;;5051416;28;892;-70
2023/10/06 16:40:58;;;;;;;;;;;;;;;;;;5051115;28;880;-70
2023/10/06 16:43:24;;;;;;;;;;;;;;;;;;5051354;28;828;-70
2023/10/06 16:45:49;;;;;;;;;;;;;;;;;;5051052;28;904;-69
2023/10/06 16:48:14;;;;;;;;;;;;;;;;;;5049862;28;1894;-70
2023/10/06 16:50:42;;;;;;;;;;;;;;;;;;5033270;28;1176;-71
2023/10/06 16:53:07;;;;;;;;;;;;;;;;;;5050440;28;833;-70
2023/10/06 16:55:33;;;;;;;;;;;;;;;;;;5051242;28;976;-70
2023/10/06 16:57:59;;;;;;;;;;;;;;;;;;5050489;28;868;-71
2023/10/06 17:00:25;;;;;;;;;;;;;;;;;;5051103;28;892;-70
2023/10/06 17:02:50;;;;;;;;;;;;;;;;;;5050994;28;821;-70
2023/10/06 17:05:16;;;;;;;;;;;;;;;;;;5050387;28;866;-70
2023/10/06 17:07:41;;;;;;;;;;;;;;;;;;5050987;28;1906;-70
2023/10/06 17:10:08;;;;;;;;;;;;;;;;;;5049631;28;797;-70
2023/10/06 17:12:34;;;;;;;;;;;;;;;;;;5051322;28;868;-70
2023/10/06 17:14:59;;;;;;;;;;;;;;;;;;5055118;28;1015;-71
2023/10/06 17:17:25;;;;;;;;;;;;;;;;;;5056078;28;821;-70
2023/10/06 17:19:50;;;;;;;;;;;;;;;;;;5055655;28;927;-70
2023/10/06 17:22:19;;;;;;;;;;;;;;;;;;5055691;28;951;-70
2023/10/06 17:24:44;;;;;;;;;;;;;;;;;;5055518;28;860;-71
2023/10/06 17:27:14;;;;;;;;;;;;;;;;;;5054990;28;1954;-70
2023/10/06 17:29:39;;;;;;;;;;;;;;;;;;5055564;28;857;-71
2023/10/06 17:32:06;;;;;;;;;;;;;;;;;;5053579;28;825;-71
2023/10/06 17:34:31;;;;;;;;;;;;;;;;;;5055526;28;1211;-71
2023/10/06 17:36:57;;;;;;;;;;;;;;;;;;5054882;28;987;-71
2023/10/06 17:39:23;;;;;;;;;;;;;;;;;;5054175;28;872;-70
2023/10/06 17:41:48;;;;;;;;;;;;;;;;;;5053035;28;1035;-70
2023/10/06 17:44:14;;;;;;;;;;;;;;;;;;5053488;28;979;-70
2023/10/06 17:46:39;;;;;;;;;;;;;;;;;;5054446;28;997;-71
2023/10/06 17:49:07;;;;;;;;;;;;;;;;;;5035404;28;1890;-71
2023/10/06 17:51:33;;;;;;;;;;;;;;;;;;5054221;28;1226;-71